sensor_id;sensor_type;location;lat;lon;timestamp;P1;durP1;ratioP1;P2;durP2;ratioP2
24555;SDS011;12725;49.440;10.954;2022-10-16T00:00:44;0.45;;;0.45;;
24555;SDS011;12725;49.440;10.954;2022-10-16T00:04:44;0.30;;;0.30;;
24555;SDS011;12725;49.440;10.954;2022-10-16T00:08:45;0.30;;;0.30;;
24555;SDS011;12725;49.440;10.954;2022-10-16T00:12:45;0.30;;;0.30;;
24555;SDS011;12725;49.440;10.954;2022-10-16T00:16:45;0.52;;;0.52;;
24555;SDS011;12725;49.440;10.954;2022-10-16T00:20:46;4.18;;;1.00;;
24555;SDS011;12725;49.440;10.954;2022-10-16T00:24:46;0.37;;;0.37;;
24555;SDS011;12725;49.440;10.954;2022-10-16T00:28:47;0.57;;;0.57;;
24555;SDS011;12725;49.440;10.954;2022-10-16T00:32:47;0.30;;;0.30;;
24555;SDS011;12725;49.440;10.954;2022-10-16T00:36:48;0.38;;;0.38;;
24555;SDS011;12725;49.440;10.954;2022-10-16T00:40:48;0.60;;;0.60;;
24555;SDS011;12725;49.440;10.954;2022-10-16T00:44:50;0.30;;;0.30;;
24555;SDS011;12725;49.440;10.954;2022-10-16T00:49:03;0.77;;;0.77;;
24555;SDS011;12725;49.440;10.954;2022-10-16T00:53:04;0.40;;;0.40;;
24555;SDS011;12725;49.440;10.954;2022-10-16T00:57:05;0.40;;;0.40;;
24555;SDS011;12725;49.440;10.954;2022-10-16T01:01:05;0.60;;;0.60;;
24555;SDS011;12725;49.440;10.954;2022-10-16T01:05:06;0.53;;;0.53;;
24555;SDS011;12725;49.440;10.954;2022-10-16T01:09:17;0.65;;;0.65;;
24555;SDS011;12725;49.440;10.954;2022-10-16T01:13:31;0.32;;;0.32;;
24555;SDS011;12725;49.440;10.954;2022-10-16T01:17:35;0.60;;;0.60;;
24555;SDS011;12725;49.440;10.954;2022-10-16T01:21:41;0.38;;;0.38;;
24555;SDS011;12725;49.440;10.954;2022-10-16T01:29:53;0.50;;;0.50;;
24555;SDS011;12725;49.440;10.954;2022-10-16T01:34:01;0.95;;;0.88;;
24555;SDS011;12725;49.440;10.954;2022-10-16T01:38:10;1.63;;;0.80;;
24555;SDS011;12725;49.440;10.954;2022-10-16T01:42:14;0.50;;;0.50;;
24555;SDS011;12725;49.440;10.954;2022-10-16T01:46:16;5.78;;;1.23;;
24555;SDS011;12725;49.440;10.954;2022-10-16T01:50:18;0.88;;;0.82;;
24555;SDS011;12725;49.440;10.954;2022-10-16T01:54:19;0.45;;;0.45;;
24555;SDS011;12725;49.440;10.954;2022-10-16T01:58:20;0.50;;;0.50;;
24555;SDS011;12725;49.440;10.954;2022-10-16T02:02:21;0.98;;;0.90;;
24555;SDS011;12725;49.440;10.954;2022-10-16T02:06:22;0.70;;;0.70;;
24555;SDS011;12725;49.440;10.954;2022-10-16T02:10:24;0.82;;;0.82;;
24555;SDS011;12725;49.440;10.954;2022-10-16T02:14:25;0.30;;;0.30;;
24555;SDS011;12725;49.440;10.954;2022-10-16T02:18:26;0.30;;;0.30;;
24555;SDS011;12725;49.440;10.954;2022-10-16T02:26:49;0.38;;;0.38;;
24555;SDS011;12725;49.440;10.954;2022-10-16T02:30:55;1.65;;;1.00;;
24555;SDS011;12725;49.440;10.954;2022-10-16T02:34:56;0.80;;;0.80;;
24555;SDS011;12725;49.440;10.954;2022-10-16T02:38:58;0.65;;;0.50;;
24555;SDS011;12725;49.440;10.954;2022-10-16T02:43:00;0.70;;;0.70;;
24555;SDS011;12725;49.440;10.954;2022-10-16T02:47:03;0.30;;;0.30;;
24555;SDS011;12725;49.440;10.954;2022-10-16T02:51:03;0.50;;;0.50;;
24555;SDS011;12725;49.440;10.954;2022-10-16T02:55:03;0.43;;;0.43;;
24555;SDS011;12725;49.440;10.954;2022-10-16T02:59:04;0.82;;;0.82;;
24555;SDS011;12725;49.440;10.954;2022-10-16T03:03:04;0.40;;;0.40;;
24555;SDS011;12725;49.440;10.954;2022-10-16T03:07:04;0.30;;;0.30;;
24555;SDS011;12725;49.440;10.954;2022-10-16T03:11:05;0.30;;;0.30;;
24555;SDS011;12725;49.440;10.954;2022-10-16T03:15:05;0.57;;;0.57;;
24555;SDS011;12725;49.440;10.954;2022-10-16T03:19:06;1.35;;;0.95;;
24555;SDS011;12725;49.440;10.954;2022-10-16T03:23:07;1.13;;;0.93;;
24555;SDS011;12725;49.440;10.954;2022-10-16T03:27:08;0.50;;;0.50;;
24555;SDS011;12725;49.440;10.954;2022-10-16T03:31:08;1.20;;;0.90;;
24555;SDS011;12725;49.440;10.954;2022-10-16T03:35:08;0.87;;;0.87;;
24555;SDS011;12725;49.440;10.954;2022-10-16T03:39:09;0.70;;;0.70;;
24555;SDS011;12725;49.440;10.954;2022-10-16T03:43:09;0.63;;;0.63;;
24555;SDS011;12725;49.440;10.954;2022-10-16T03:47:09;0.73;;;0.63;;
24555;SDS011;12725;49.440;10.954;2022-10-16T03:51:10;0.50;;;0.50;;
24555;SDS011;12725;49.440;10.954;2022-10-16T03:55:10;0.50;;;0.50;;
24555;SDS011;12725;49.440;10.954;2022-10-16T03:59:10;0.30;;;0.30;;
24555;SDS011;12725;49.440;10.954;2022-10-16T04:03:11;0.40;;;0.40;;
24555;SDS011;12725;49.440;10.954;2022-10-16T04:07:11;0.40;;;0.40;;
24555;SDS011;12725;49.440;10.954;2022-10-16T04:11:11;0.40;;;0.40;;
24555;SDS011;12725;49.440;10.954;2022-10-16T04:15:11;0.53;;;0.53;;
24555;SDS011;12725;49.440;10.954;2022-10-16T04:19:12;0.47;;;0.47;;
24555;SDS011;12725;49.440;10.954;2022-10-16T04:23:12;0.65;;;0.65;;
24555;SDS011;12725;49.440;10.954;2022-10-16T04:27:12;1.17;;;0.60;;
24555;SDS011;12725;49.440;10.954;2022-10-16T04:31:13;0.30;;;0.30;;
24555;SDS011;12725;49.440;10.954;2022-10-16T04:35:13;1.63;;;1.53;;
24555;SDS011;12725;49.440;10.954;2022-10-16T04:39:13;0.47;;;0.47;;
24555;SDS011;12725;49.440;10.954;2022-10-16T04:43:13;0.50;;;0.40;;
24555;SDS011;12725;49.440;10.954;2022-10-16T04:47:14;0.60;;;0.60;;
24555;SDS011;12725;49.440;10.954;2022-10-16T04:51:14;0.60;;;0.60;;
24555;SDS011;12725;49.440;10.954;2022-10-16T04:55:14;0.52;;;0.52;;
24555;SDS011;12725;49.440;10.954;2022-10-16T04:59:15;1.00;;;1.00;;
24555;SDS011;12725;49.440;10.954;2022-10-16T05:03:16;0.80;;;0.80;;
24555;SDS011;12725;49.440;10.954;2022-10-16T05:07:16;1.00;;;0.97;;
24555;SDS011;12725;49.440;10.954;2022-10-16T05:11:16;0.40;;;0.40;;
24555;SDS011;12725;49.440;10.954;2022-10-16T05:15:17;0.80;;;0.67;;
24555;SDS011;12725;49.440;10.954;2022-10-16T05:19:17;0.75;;;0.75;;
24555;SDS011;12725;49.440;10.954;2022-10-16T05:23:17;0.30;;;0.30;;
24555;SDS011;12725;49.440;10.954;2022-10-16T05:27:18;1.60;;;1.07;;
24555;SDS011;12725;49.440;10.954;2022-10-16T05:31:21;0.40;;;0.40;;
24555;SDS011;12725;49.440;10.954;2022-10-16T05:35:21;0.40;;;0.40;;
24555;SDS011;12725;49.440;10.954;2022-10-16T05:39:22;1.00;;;0.90;;
24555;SDS011;12725;49.440;10.954;2022-10-16T05:43:22;0.65;;;0.65;;
24555;SDS011;12725;49.440;10.954;2022-10-16T05:47:22;0.30;;;0.30;;
24555;SDS011;12725;49.440;10.954;2022-10-16T05:51:23;0.60;;;0.60;;
24555;SDS011;12725;49.440;10.954;2022-10-16T05:55:23;0.40;;;0.40;;
24555;SDS011;12725;49.440;10.954;2022-10-16T05:59:23;0.37;;;0.37;;
24555;SDS011;12725;49.440;10.954;2022-10-16T06:03:23;0.60;;;0.57;;
24555;SDS011;12725;49.440;10.954;2022-10-16T06:07:24;0.43;;;0.43;;
24555;SDS011;12725;49.440;10.954;2022-10-16T06:11:25;0.50;;;0.50;;
24555;SDS011;12725;49.440;10.954;2022-10-16T06:15:26;0.80;;;0.80;;
24555;SDS011;12725;49.440;10.954;2022-10-16T06:19:26;1.08;;;0.73;;
24555;SDS011;12725;49.440;10.954;2022-10-16T06:23:28;0.40;;;0.40;;
24555;SDS011;12725;49.440;10.954;2022-10-16T06:27:28;0.60;;;0.60;;
24555;SDS011;12725;49.440;10.954;2022-10-16T06:31:28;0.68;;;0.68;;
24555;SDS011;12725;49.440;10.954;2022-10-16T06:35:30;0.57;;;0.57;;
24555;SDS011;12725;49.440;10.954;2022-10-16T06:39:32;0.50;;;0.50;;
24555;SDS011;12725;49.440;10.954;2022-10-16T06:43:32;0.60;;;0.60;;
24555;SDS011;12725;49.440;10.954;2022-10-16T06:47:35;0.50;;;0.50;;
24555;SDS011;12725;49.440;10.954;2022-10-16T06:51:35;0.50;;;0.50;;
24555;SDS011;12725;49.440;10.954;2022-10-16T06:55:40;0.50;;;0.50;;
24555;SDS011;12725;49.440;10.954;2022-10-16T06:59:40;0.50;;;0.50;;
24555;SDS011;12725;49.440;10.954;2022-10-16T07:03:41;0.30;;;0.30;;
24555;SDS011;12725;49.440;10.954;2022-10-16T07:07:42;0.90;;;0.90;;
24555;SDS011;12725;49.440;10.954;2022-10-16T07:11:42;0.40;;;0.40;;
24555;SDS011;12725;49.440;10.954;2022-10-16T07:15:42;0.70;;;0.70;;
24555;SDS011;12725;49.440;10.954;2022-10-16T07:19:43;1.23;;;1.17;;
24555;SDS011;12725;49.440;10.954;2022-10-16T07:23:43;0.60;;;0.50;;
24555;SDS011;12725;49.440;10.954;2022-10-16T07:27:43;0.37;;;0.37;;
24555;SDS011;12725;49.440;10.954;2022-10-16T07:31:44;0.83;;;0.83;;
24555;SDS011;12725;49.440;10.954;2022-10-16T07:35:48;0.45;;;0.45;;
24555;SDS011;12725;49.440;10.954;2022-10-16T07:39:48;0.40;;;0.40;;
24555;SDS011;12725;49.440;10.954;2022-10-16T07:43:50;1.02;;;1.02;;
24555;SDS011;12725;49.440;10.954;2022-10-16T07:47:51;0.40;;;0.40;;
24555;SDS011;12725;49.440;10.954;2022-10-16T07:51:51;0.83;;;0.83;;
24555;SDS011;12725;49.440;10.954;2022-10-16T07:55:51;0.60;;;0.60;;
24555;SDS011;12725;49.440;10.954;2022-10-16T07:59:52;0.60;;;0.60;;
24555;SDS011;12725;49.440;10.954;2022-10-16T08:03:52;0.40;;;0.40;;
24555;SDS011;12725;49.440;10.954;2022-10-16T08:07:52;1.27;;;1.13;;
24555;SDS011;12725;49.440;10.954;2022-10-16T08:11:53;3.97;;;1.33;;
24555;SDS011;12725;49.440;10.954;2022-10-16T08:15:53;1.13;;;1.13;;
24555;SDS011;12725;49.440;10.954;2022-10-16T08:19:54;1.70;;;1.08;;
24555;SDS011;12725;49.440;10.954;2022-10-16T08:23:54;1.15;;;0.95;;
24555;SDS011;12725;49.440;10.954;2022-10-16T08:27:55;0.93;;;0.93;;
24555;SDS011;12725;49.440;10.954;2022-10-16T08:31:55;1.00;;;0.70;;
24555;SDS011;12725;49.440;10.954;2022-10-16T08:35:56;0.90;;;0.87;;
24555;SDS011;12725;49.440;10.954;2022-10-16T08:39:56;0.70;;;0.70;;
24555;SDS011;12725;49.440;10.954;2022-10-16T08:52:25;0.60;;;0.60;;
24555;SDS011;12725;49.440;10.954;2022-10-16T08:56:29;1.38;;;0.68;;
24555;SDS011;12725;49.440;10.954;2022-10-16T09:00:29;6.38;;;1.27;;
24555;SDS011;12725;49.440;10.954;2022-10-16T09:13:14;1.58;;;0.80;;
24555;SDS011;12725;49.440;10.954;2022-10-16T09:21:30;0.95;;;0.75;;
24555;SDS011;12725;49.440;10.954;2022-10-16T09:25:31;3.97;;;0.65;;
24555;SDS011;12725;49.440;10.954;2022-10-16T09:29:32;1.13;;;0.77;;
24555;SDS011;12725;49.440;10.954;2022-10-16T09:33:36;0.30;;;0.30;;
24555;SDS011;12725;49.440;10.954;2022-10-16T09:37:37;0.57;;;0.52;;
24555;SDS011;12725;49.440;10.954;2022-10-16T09:41:42;0.87;;;0.63;;
24555;SDS011;12725;49.440;10.954;2022-10-16T09:45:55;0.40;;;0.40;;
24555;SDS011;12725;49.440;10.954;2022-10-16T09:49:59;0.60;;;0.50;;
24555;SDS011;12725;49.440;10.954;2022-10-16T09:58:11;2.63;;;0.98;;
24555;SDS011;12725;49.440;10.954;2022-10-16T10:02:13;0.60;;;0.60;;
24555;SDS011;12725;49.440;10.954;2022-10-16T10:06:16;0.82;;;0.68;;
24555;SDS011;12725;49.440;10.954;2022-10-16T10:10:22;1.02;;;0.75;;
24555;SDS011;12725;49.440;10.954;2022-10-16T10:18:24;0.47;;;0.47;;
24555;SDS011;12725;49.440;10.954;2022-10-16T10:26:36;2.03;;;0.95;;
24555;SDS011;12725;49.440;10.954;2022-10-16T10:30:44;0.95;;;0.90;;
24555;SDS011;12725;49.440;10.954;2022-10-16T10:43:03;0.43;;;0.40;;
24555;SDS011;12725;49.440;10.954;2022-10-16T10:47:22;1.35;;;0.63;;
24555;SDS011;12725;49.440;10.954;2022-10-16T10:59:32;5.10;;;0.87;;
24555;SDS011;12725;49.440;10.954;2022-10-16T11:08:00;0.88;;;0.88;;
24555;SDS011;12725;49.440;10.954;2022-10-16T11:12:05;0.30;;;0.30;;
24555;SDS011;12725;49.440;10.954;2022-10-16T11:20:41;0.47;;;0.47;;
24555;SDS011;12725;49.440;10.954;2022-10-16T11:24:48;0.60;;;0.60;;
24555;SDS011;12725;49.440;10.954;2022-10-16T11:28:55;0.32;;;0.32;;
24555;SDS011;12725;49.440;10.954;2022-10-16T11:41:10;0.65;;;0.65;;
24555;SDS011;12725;49.440;10.954;2022-10-16T11:45:24;0.52;;;0.45;;
24555;SDS011;12725;49.440;10.954;2022-10-16T11:49:26;0.65;;;0.60;;
24555;SDS011;12725;49.440;10.954;2022-10-16T11:53:34;1.75;;;0.77;;
24555;SDS011;12725;49.440;10.954;2022-10-16T11:57:38;1.35;;;0.60;;
24555;SDS011;12725;49.440;10.954;2022-10-16T12:01:49;0.40;;;0.40;;
24555;SDS011;12725;49.440;10.954;2022-10-16T12:18:30;0.40;;;0.40;;
24555;SDS011;12725;49.440;10.954;2022-10-16T12:22:34;0.47;;;0.47;;
24555;SDS011;12725;49.440;10.954;2022-10-16T12:26:37;1.17;;;0.55;;
24555;SDS011;12725;49.440;10.954;2022-10-16T12:30:41;0.50;;;0.50;;
24555;SDS011;12725;49.440;10.954;2022-10-16T12:34:52;0.30;;;0.30;;
24555;SDS011;12725;49.440;10.954;2022-10-16T12:38:58;1.00;;;0.60;;
24555;SDS011;12725;49.440;10.954;2022-10-16T12:43:21;3.03;;;0.80;;
24555;SDS011;12725;49.440;10.954;2022-10-16T12:51:34;0.40;;;0.40;;
24555;SDS011;12725;49.440;10.954;2022-10-16T12:55:42;0.40;;;0.40;;
24555;SDS011;12725;49.440;10.954;2022-10-16T13:08:22;2.08;;;0.68;;
24555;SDS011;12725;49.440;10.954;2022-10-16T13:21:19;0.60;;;0.60;;
24555;SDS011;12725;49.440;10.954;2022-10-16T13:25:30;0.30;;;0.30;;
24555;SDS011;12725;49.440;10.954;2022-10-16T13:29:33;0.50;;;0.50;;
24555;SDS011;12725;49.440;10.954;2022-10-16T13:33:37;0.47;;;0.47;;
24555;SDS011;12725;49.440;10.954;2022-10-16T13:37:38;5.88;;;0.50;;
24555;SDS011;12725;49.440;10.954;2022-10-16T13:41:38;0.30;;;0.30;;
24555;SDS011;12725;49.440;10.954;2022-10-16T13:45:39;0.60;;;0.60;;
24555;SDS011;12725;49.440;10.954;2022-10-16T13:49:39;0.30;;;0.30;;
24555;SDS011;12725;49.440;10.954;2022-10-16T13:53:39;0.57;;;0.57;;
24555;SDS011;12725;49.440;10.954;2022-10-16T13:57:40;0.55;;;0.55;;
24555;SDS011;12725;49.440;10.954;2022-10-16T14:01:41;0.50;;;0.50;;
24555;SDS011;12725;49.440;10.954;2022-10-16T14:06:17;0.40;;;0.40;;
24555;SDS011;12725;49.440;10.954;2022-10-16T14:10:22;0.65;;;0.52;;
24555;SDS011;12725;49.440;10.954;2022-10-16T14:14:23;0.98;;;0.50;;
24555;SDS011;12725;49.440;10.954;2022-10-16T14:18:24;0.38;;;0.38;;
24555;SDS011;12725;49.440;10.954;2022-10-16T14:22:38;1.17;;;0.40;;
24555;SDS011;12725;49.440;10.954;2022-10-16T14:26:41;0.55;;;0.40;;
24555;SDS011;12725;49.440;10.954;2022-10-16T14:31:42;0.68;;;0.50;;
24555;SDS011;12725;49.440;10.954;2022-10-16T14:35:28;0.40;;;0.40;;
24555;SDS011;12725;49.440;10.954;2022-10-16T14:39:29;0.63;;;0.60;;
24555;SDS011;12725;49.440;10.954;2022-10-16T14:43:34;2.35;;;0.50;;
24555;SDS011;12725;49.440;10.954;2022-10-16T14:47:35;0.43;;;0.40;;
24555;SDS011;12725;49.440;10.954;2022-10-16T14:51:37;0.30;;;0.30;;
24555;SDS011;12725;49.440;10.954;2022-10-16T14:55:38;0.40;;;0.40;;
24555;SDS011;12725;49.440;10.954;2022-10-16T14:59:40;0.85;;;0.63;;
24555;SDS011;12725;49.440;10.954;2022-10-16T15:03:40;0.85;;;0.50;;
24555;SDS011;12725;49.440;10.954;2022-10-16T15:07:41;0.43;;;0.43;;
24555;SDS011;12725;49.440;10.954;2022-10-16T15:11:41;0.50;;;0.50;;
24555;SDS011;12725;49.440;10.954;2022-10-16T15:15:46;0.60;;;0.50;;
24555;SDS011;12725;49.440;10.954;2022-10-16T15:19:46;0.50;;;0.50;;
24555;SDS011;12725;49.440;10.954;2022-10-16T15:23:48;0.40;;;0.40;;
24555;SDS011;12725;49.440;10.954;2022-10-16T15:27:48;0.43;;;0.43;;
24555;SDS011;12725;49.440;10.954;2022-10-16T15:31:48;0.97;;;0.70;;
24555;SDS011;12725;49.440;10.954;2022-10-16T15:35:49;1.40;;;0.70;;
24555;SDS011;12725;49.440;10.954;2022-10-16T15:39:50;0.77;;;0.70;;
24555;SDS011;12725;49.440;10.954;2022-10-16T15:43:50;0.65;;;0.40;;
24555;SDS011;12725;49.440;10.954;2022-10-16T15:47:51;1.27;;;0.80;;
24555;SDS011;12725;49.440;10.954;2022-10-16T15:51:52;0.60;;;0.60;;
24555;SDS011;12725;49.440;10.954;2022-10-16T15:55:54;0.38;;;0.38;;
24555;SDS011;12725;49.440;10.954;2022-10-16T15:59:55;0.50;;;0.50;;
24555;SDS011;12725;49.440;10.954;2022-10-16T16:03:55;0.50;;;0.50;;
24555;SDS011;12725;49.440;10.954;2022-10-16T16:07:55;0.53;;;0.50;;
24555;SDS011;12725;49.440;10.954;2022-10-16T16:11:56;0.45;;;0.45;;
24555;SDS011;12725;49.440;10.954;2022-10-16T16:15:59;0.50;;;0.50;;
24555;SDS011;12725;49.440;10.954;2022-10-16T16:19:59;0.65;;;0.65;;
24555;SDS011;12725;49.440;10.954;2022-10-16T16:24:00;0.43;;;0.43;;
24555;SDS011;12725;49.440;10.954;2022-10-16T16:28:00;11.80;;;1.33;;
24555;SDS011;12725;49.440;10.954;2022-10-16T16:32:01;9.27;;;3.10;;
24555;SDS011;12725;49.440;10.954;2022-10-16T16:36:02;16.63;;;6.30;;
24555;SDS011;12725;49.440;10.954;2022-10-16T16:40:03;10.13;;;4.38;;
24555;SDS011;12725;49.440;10.954;2022-10-16T16:44:06;7.15;;;4.00;;
24555;SDS011;12725;49.440;10.954;2022-10-16T16:48:07;7.85;;;3.97;;
24555;SDS011;12725;49.440;10.954;2022-10-16T16:52:08;2.65;;;2.10;;
24555;SDS011;12725;49.440;10.954;2022-10-16T16:56:09;7.40;;;2.40;;
24555;SDS011;12725;49.440;10.954;2022-10-16T17:00:09;2.87;;;1.73;;
24555;SDS011;12725;49.440;10.954;2022-10-16T17:04:09;3.05;;;1.83;;
24555;SDS011;12725;49.440;10.954;2022-10-16T17:08:10;2.58;;;0.98;;
24555;SDS011;12725;49.440;10.954;2022-10-16T17:12:10;1.60;;;1.50;;
24555;SDS011;12725;49.440;10.954;2022-10-16T17:16:10;3.83;;;2.08;;
24555;SDS011;12725;49.440;10.954;2022-10-16T17:20:11;1.53;;;1.10;;
24555;SDS011;12725;49.440;10.954;2022-10-16T17:24:11;2.07;;;0.93;;
24555;SDS011;12725;49.440;10.954;2022-10-16T17:28:12;2.50;;;0.80;;
24555;SDS011;12725;49.440;10.954;2022-10-16T17:32:13;0.82;;;0.70;;
24555;SDS011;12725;49.440;10.954;2022-10-16T17:40:24;0.80;;;0.80;;
24555;SDS011;12725;49.440;10.954;2022-10-16T17:44:34;1.30;;;1.17;;
24555;SDS011;12725;49.440;10.954;2022-10-16T17:48:41;4.38;;;1.02;;
24555;SDS011;12725;49.440;10.954;2022-10-16T17:52:49;4.70;;;1.27;;
24555;SDS011;12725;49.440;10.954;2022-10-16T17:56:52;19.70;;;1.20;;
24555;SDS011;12725;49.440;10.954;2022-10-16T18:01:25;2.25;;;2.15;;
24555;SDS011;12725;49.440;10.954;2022-10-16T18:10:33;0.70;;;0.70;;
24555;SDS011;12725;49.440;10.954;2022-10-16T18:14:45;11.30;;;1.10;;
24555;SDS011;12725;49.440;10.954;2022-10-16T18:23:21;2.92;;;1.30;;
24555;SDS011;12725;49.440;10.954;2022-10-16T18:27:22;0.50;;;0.50;;
24555;SDS011;12725;49.440;10.954;2022-10-16T18:31:23;0.85;;;0.85;;
24555;SDS011;12725;49.440;10.954;2022-10-16T18:35:39;0.80;;;0.80;;
24555;SDS011;12725;49.440;10.954;2022-10-16T18:39:42;1.38;;;0.93;;
24555;SDS011;12725;49.440;10.954;2022-10-16T18:43:59;1.05;;;0.82;;
24555;SDS011;12725;49.440;10.954;2022-10-16T18:48:06;3.10;;;1.05;;
24555;SDS011;12725;49.440;10.954;2022-10-16T18:52:12;1.10;;;1.05;;
24555;SDS011;12725;49.440;10.954;2022-10-16T18:56:13;2.15;;;1.15;;
24555;SDS011;12725;49.440;10.954;2022-10-16T19:00:20;1.20;;;0.73;;
24555;SDS011;12725;49.440;10.954;2022-10-16T19:04:44;0.57;;;0.57;;
24555;SDS011;12725;49.440;10.954;2022-10-16T19:08:49;1.17;;;1.08;;
24555;SDS011;12725;49.440;10.954;2022-10-16T19:17:30;3.78;;;1.02;;
24555;SDS011;12725;49.440;10.954;2022-10-16T19:21:41;0.50;;;0.50;;
24555;SDS011;12725;49.440;10.954;2022-10-16T19:26:24;2.95;;;0.77;;
24555;SDS011;12725;49.440;10.954;2022-10-16T19:31:08;0.75;;;0.60;;
24555;SDS011;12725;49.440;10.954;2022-10-16T19:35:45;0.60;;;0.60;;
24555;SDS011;12725;49.440;10.954;2022-10-16T19:40:27;0.70;;;0.70;;
24555;SDS011;12725;49.440;10.954;2022-10-16T19:50:22;0.63;;;0.63;;
24555;SDS011;12725;49.440;10.954;2022-10-16T20:18:48;1.90;;;1.05;;
24555;SDS011;12725;49.440;10.954;2022-10-16T20:27:21;0.52;;;0.52;;
24555;SDS011;12725;49.440;10.954;2022-10-16T20:31:30;1.00;;;0.88;;
24555;SDS011;12725;49.440;10.954;2022-10-16T20:35:34;1.30;;;0.88;;
24555;SDS011;12725;49.440;10.954;2022-10-16T20:39:34;2.20;;;1.33;;
24555;SDS011;12725;49.440;10.954;2022-10-16T20:43:35;2.13;;;1.30;;
24555;SDS011;12725;49.440;10.954;2022-10-16T20:47:35;2.75;;;1.55;;
24555;SDS011;12725;49.440;10.954;2022-10-16T20:51:36;2.60;;;1.65;;
24555;SDS011;12725;49.440;10.954;2022-10-16T20:55:36;1.60;;;1.33;;
24555;SDS011;12725;49.440;10.954;2022-10-16T20:59:36;1.35;;;1.10;;
24555;SDS011;12725;49.440;10.954;2022-10-16T21:03:37;0.90;;;0.90;;
24555;SDS011;12725;49.440;10.954;2022-10-16T21:07:37;0.50;;;0.50;;
24555;SDS011;12725;49.440;10.954;2022-10-16T21:11:37;1.03;;;0.80;;
24555;SDS011;12725;49.440;10.954;2022-10-16T21:15:38;1.07;;;1.07;;
24555;SDS011;12725;49.440;10.954;2022-10-16T21:19:38;0.70;;;0.70;;
24555;SDS011;12725;49.440;10.954;2022-10-16T21:23:38;1.50;;;0.77;;
24555;SDS011;12725;49.440;10.954;2022-10-16T21:27:39;1.60;;;0.70;;
24555;SDS011;12725;49.440;10.954;2022-10-16T21:31:39;3.08;;;0.80;;
24555;SDS011;12725;49.440;10.954;2022-10-16T21:35:40;0.80;;;0.80;;
24555;SDS011;12725;49.440;10.954;2022-10-16T21:39:40;0.98;;;0.93;;
24555;SDS011;12725;49.440;10.954;2022-10-16T21:43:41;1.33;;;0.90;;
24555;SDS011;12725;49.440;10.954;2022-10-16T21:47:41;2.25;;;1.25;;
24555;SDS011;12725;49.440;10.954;2022-10-16T21:51:43;0.40;;;0.40;;
24555;SDS011;12725;49.440;10.954;2022-10-16T21:55:43;1.75;;;1.27;;
24555;SDS011;12725;49.440;10.954;2022-10-16T21:59:43;1.73;;;1.30;;
24555;SDS011;12725;49.440;10.954;2022-10-16T22:03:44;3.33;;;1.75;;
24555;SDS011;12725;49.440;10.954;2022-10-16T22:07:45;1.40;;;1.10;;
24555;SDS011;12725;49.440;10.954;2022-10-16T22:11:45;2.07;;;1.27;;
24555;SDS011;12725;49.440;10.954;2022-10-16T22:15:49;0.53;;;0.53;;
24555;SDS011;12725;49.440;10.954;2022-10-16T22:19:51;1.58;;;0.95;;
24555;SDS011;12725;49.440;10.954;2022-10-16T22:23:51;0.80;;;0.80;;
24555;SDS011;12725;49.440;10.954;2022-10-16T22:27:51;1.10;;;0.97;;
24555;SDS011;12725;49.440;10.954;2022-10-16T22:31:51;1.03;;;0.77;;
24555;SDS011;12725;49.440;10.954;2022-10-16T22:35:52;1.87;;;0.63;;
24555;SDS011;12725;49.440;10.954;2022-10-16T22:39:52;1.37;;;1.23;;
24555;SDS011;12725;49.440;10.954;2022-10-16T22:43:52;1.30;;;1.13;;
24555;SDS011;12725;49.440;10.954;2022-10-16T22:47:53;1.43;;;0.70;;
24555;SDS011;12725;49.440;10.954;2022-10-16T22:51:53;0.53;;;0.53;;
24555;SDS011;12725;49.440;10.954;2022-10-16T22:55:53;1.20;;;0.80;;
24555;SDS011;12725;49.440;10.954;2022-10-16T22:59:53;1.37;;;1.27;;
24555;SDS011;12725;49.440;10.954;2022-10-16T23:03:54;1.10;;;0.80;;
24555;SDS011;12725;49.440;10.954;2022-10-16T23:07:54;0.50;;;0.50;;
24555;SDS011;12725;49.440;10.954;2022-10-16T23:11:54;1.27;;;1.13;;
24555;SDS011;12725;49.440;10.954;2022-10-16T23:15:55;19.88;;;1.50;;
24555;SDS011;12725;49.440;10.954;2022-10-16T23:19:55;0.90;;;0.90;;
24555;SDS011;12725;49.440;10.954;2022-10-16T23:23:55;1.70;;;1.27;;
24555;SDS011;12725;49.440;10.954;2022-10-16T23:27:56;0.70;;;0.70;;
24555;SDS011;12725;49.440;10.954;2022-10-16T23:31:56;0.77;;;0.70;;
24555;SDS011;12725;49.440;10.954;2022-10-16T23:35:57;2.30;;;1.40;;
24555;SDS011;12725;49.440;10.954;2022-10-16T23:39:57;1.60;;;1.00;;
24555;SDS011;12725;49.440;10.954;2022-10-16T23:43:57;3.30;;;1.27;;
24555;SDS011;12725;49.440;10.954;2022-10-16T23:47:57;0.70;;;0.70;;
24555;SDS011;12725;49.440;10.954;2022-10-16T23:51:58;1.57;;;1.07;;
24555;SDS011;12725;49.440;10.954;2022-10-16T23:55:58;3.07;;;1.20;;
24555;SDS011;12725;49.440;10.954;2022-10-16T23:59:59;0.40;;;0.40;;
